Time;durP1;ratioP1;P1;durP2;ratioP2;P2;SDS_P1;SDS_P2;PMS_P1;PMS_P2;Temp;Humidity;BMP_temperature;BMP_pressure;BME280_temperature;BME280_humidity;BME280_pressure;Samples;Min_cycle;Max_cycle;Signal;HPM_P1;HPM_P2
2022/07/15 00:02:07;;;;;;;;;;;;;;;17.81;72.88;100120.53;1654842;85;20159;-67
2022/07/15 00:04:34;;;;;;;;;;;;;;;17.80;72.97;100114.07;1654451;85;21598;-67
2022/07/15 00:07:03;;;;;;;;;;;;;;;17.78;73.03;100114.41;1654826;85;20147;-68
2022/07/15 00:12:15;;;;;;;;;;;;;;;17.80;73.07;100110.02;1655444;85;21184;-67
2022/07/15 00:14:42;;;;;;;;;;;;;;;17.82;73.02;100106.46;1654835;85;20186;-67
2022/07/15 00:17:09;;;;;;;;;;;;;;;17.76;72.99;100100.94;1654561;85;20783;-67
2022/07/15 00:19:36;;;;;;;;;;;;;;;17.70;73.10;100101.66;1652277;85;20215;-68
2022/07/15 00:22:06;;;;;;;;;;;;;;;17.66;73.22;100102.03;1655648;85;21855;-68
2022/07/15 00:24:34;;;;;;;;;;;;;;;17.59;73.32;100102.50;1654913;85;20501;-67
2022/07/15 00:27:02;;;;;;;;;;;;;;;17.55;73.41;100100.75;1655686;85;20231;-68
2022/07/15 00:29:30;;;;;;;;;;;;;;;17.54;73.49;100095.91;1654444;85;20209;-68
2022/07/15 00:31:56;;;;;;;;;;;;;;;17.55;73.50;100098.05;1652225;85;20228;-68
2022/07/15 00:34:23;;;;;;;;;;;;;;;17.55;73.52;100093.44;1655279;85;21236;-67
2022/07/15 00:36:49;;;;;;;;;;;;;;;17.58;73.55;100094.16;1654402;85;20541;-68
2022/07/15 00:39:20;;;;;;;;;;;;;;;17.61;73.54;100086.55;1636721;85;20270;-67
2022/07/15 00:41:48;;;;;;;;;;;;;;;17.64;73.47;100091.33;1628027;88;20570;-67
2022/07/15 00:44:14;;;;;;;;;;;;;;;17.65;73.35;100091.55;1627907;86;20207;-67
2022/07/15 00:46:41;;;;;;;;;;;;;;;17.64;73.29;100088.63;1631072;85;21111;-67
2022/07/15 00:49:09;;;;;;;;;;;;;;;17.64;73.29;100087.27;1643726;85;20147;-70
2022/07/15 00:51:44;;;;;;;;;;;;;;;17.58;73.24;100081.22;1652183;85;20159;-67
2022/07/15 00:54:15;;;;;;;;;;;;;;;17.48;73.36;100080.96;1650569;85;20143;-67
2022/07/15 00:56:52;;;;;;;;;;;;;;;17.43;73.59;100075.70;1643398;85;20456;-67
2022/07/15 00:59:20;;;;;;;;;;;;;;;17.46;73.73;100079.12;1628438;88;21953;-67
2022/07/15 01:02:07;;;;;;;;;;;;;;;17.50;73.86;100076.58;1648982;85;20182;-67
2022/07/15 01:04:35;;;;;;;;;;;;;;;17.53;73.92;100080.80;1609227;87;20192;-67
2022/07/15 01:07:04;;;;;;;;;;;;;;;17.56;73.95;100078.03;1601945;88;20255;-67
2022/07/15 01:09:31;;;;;;;;;;;;;;;17.60;74.00;100080.33;1650026;85;20191;-67
2022/07/15 01:12:04;;;;;;;;;;;;;;;17.65;74.01;100076.70;1656698;85;21186;-67
2022/07/15 01:14:31;;;;;;;;;;;;;;;17.70;74.03;100073.83;1664806;85;20511;-67
2022/07/15 01:16:58;;;;;;;;;;;;;;;17.75;74.03;100073.69;1679607;85;20226;-67
2022/07/15 01:19:25;;;;;;;;;;;;;;;17.77;74.03;100072.30;1653461;85;20639;-67
2022/07/15 01:21:52;;;;;;;;;;;;;;;17.82;74.07;100075.39;1655984;85;20175;-67
2022/07/15 01:24:19;;;;;;;;;;;;;;;17.87;74.07;100075.78;1654520;85;21148;-67
2022/07/15 01:26:47;;;;;;;;;;;;;;;17.90;74.11;100077.32;1646044;85;20177;-67
2022/07/15 01:29:18;;;;;;;;;;;;;;;17.94;74.12;100086.38;1648201;85;20154;-67
2022/07/15 01:31:45;;;;;;;;;;;;;;;17.98;74.13;100073.81;1654281;85;20175;-67
2022/07/15 01:34:12;;;;;;;;;;;;;;;18.04;74.11;100079.30;1654668;85;20147;-68
2022/07/15 01:36:40;;;;;;;;;;;;;;;18.05;73.94;100074.13;1655247;85;21329;-67
2022/07/15 01:39:07;;;;;;;;;;;;;;;17.98;73.90;100079.78;1653891;85;20194;-68
2022/07/15 01:41:33;;;;;;;;;;;;;;;17.88;73.91;100078.74;1654805;85;20348;-67
2022/07/15 01:44:01;;;;;;;;;;;;;;;17.79;74.05;100085.48;1654273;85;20772;-67
2022/07/15 01:46:28;;;;;;;;;;;;;;;17.75;74.17;100086.64;1654553;85;20178;-68
2022/07/15 01:51:46;;;;;;;;;;;;;;;17.69;74.29;100083.84;1646127;85;20229;-67
2022/07/15 01:54:13;;;;;;;;;;;;;;;17.59;74.46;100080.89;1628960;88;20210;-67
2022/07/15 01:56:40;;;;;;;;;;;;;;;17.55;74.69;100075.89;1642477;85;20159;-67
2022/07/15 01:59:09;;;;;;;;;;;;;;;17.60;74.86;100078.98;1654942;85;20201;-66
2022/07/15 02:01:37;;;;;;;;;;;;;;;17.67;74.92;100077.16;1654478;85;20614;-67
2022/07/15 02:04:06;;;;;;;;;;;;;;;17.73;74.95;100077.25;1652504;85;20187;-67
2022/07/15 02:06:33;;;;;;;;;;;;;;;17.78;74.98;100073.09;1653980;85;20204;-67
2022/07/15 02:08:59;;;;;;;;;;;;;;;17.84;74.99;100077.23;1654957;85;20186;-67
2022/07/15 02:11:28;;;;;;;;;;;;;;;17.90;74.96;100070.56;1651346;85;20206;-68
2022/07/15 02:13:58;;;;;;;;;;;;;;;17.96;74.96;100077.37;1654280;85;21645;-68
2022/07/15 02:16:24;;;;;;;;;;;;;;;17.99;74.93;100069.98;1654063;85;20179;-68
2022/07/15 02:18:51;;;;;;;;;;;;;;;17.97;74.95;100065.47;1653115;85;20182;-66
2022/07/15 02:21:18;;;;;;;;;;;;;;;17.92;75.03;100066.18;1655563;86;20814;-68
2022/07/15 02:23:45;;;;;;;;;;;;;;;17.86;75.19;100064.19;1646817;85;20156;-68
2022/07/15 02:26:12;;;;;;;;;;;;;;;17.89;75.40;100070.30;1628285;88;21183;-67
2022/07/15 02:28:39;;;;;;;;;;;;;;;17.98;75.52;100066.27;1645004;85;20175;-68
2022/07/15 02:31:07;;;;;;;;;;;;;;;18.07;75.54;100060.87;1656193;86;20167;-67
2022/07/15 02:33:35;;;;;;;;;;;;;;;18.15;75.35;100056.00;1656541;86;20171;-68
2022/07/15 02:36:05;;;;;;;;;;;;;;;18.19;75.21;100059.64;1654157;85;20169;-67
2022/07/15 02:38:32;;;;;;;;;;;;;;;18.21;75.14;100056.86;1654821;85;21108;-68
2022/07/15 02:40:58;;;;;;;;;;;;;;;18.20;75.08;100049.88;1656187;86;20150;-68
2022/07/15 02:43:25;;;;;;;;;;;;;;;18.22;75.12;100048.19;1656363;86;20429;-68
2022/07/15 02:45:53;;;;;;;;;;;;;;;18.20;75.18;100053.14;1654953;85;20192;-68
2022/07/15 02:48:19;;;;;;;;;;;;;;;18.23;75.23;100051.16;1655515;85;20162;-68
2022/07/15 02:50:46;;;;;;;;;;;;;;;18.23;75.17;100041.70;1654930;85;21158;-68
2022/07/15 02:53:15;;;;;;;;;;;;;;;18.22;75.20;100046.28;1654887;85;20243;-67
2022/07/15 02:55:42;;;;;;;;;;;;;;;18.18;75.25;100045.34;1652679;85;20171;-67
2022/07/15 02:58:08;;;;;;;;;;;;;;;18.15;75.36;100053.30;1654697;85;20171;-68
2022/07/15 03:00:35;;;;;;;;;;;;;;;18.10;75.48;100055.61;1652375;85;20179;-68
2022/07/15 03:03:03;;;;;;;;;;;;;;;18.11;75.59;100056.41;1654465;85;21894;-68
2022/07/15 03:05:30;;;;;;;;;;;;;;;18.11;75.65;100053.14;1653978;85;20217;-68
2022/07/15 03:07:56;;;;;;;;;;;;;;;18.09;75.78;100055.36;1654641;85;20449;-68
2022/07/15 03:10:24;;;;;;;;;;;;;;;18.09;75.95;100055.92;1655079;85;20630;-67
2022/07/15 03:12:51;;;;;;;;;;;;;;;18.14;76.20;100058.47;1655181;85;20234;-67
2022/07/15 03:15:18;;;;;;;;;;;;;;;18.26;76.29;100065.35;1625602;85;21244;-67
2022/07/15 03:17:46;;;;;;;;;;;;;;;18.37;76.25;100066.63;1655380;85;20146;-67
2022/07/15 03:20:12;;;;;;;;;;;;;;;18.49;76.18;100065.95;1656205;86;20155;-67
2022/07/15 03:22:41;;;;;;;;;;;;;;;18.63;75.99;100067.92;1655096;86;20167;-67
2022/07/15 03:25:08;;;;;;;;;;;;;;;18.74;75.71;100069.17;1654515;85;20215;-67
2022/07/15 03:27:35;;;;;;;;;;;;;;;18.86;75.53;100070.43;1655358;85;21840;-68
2022/07/15 03:30:05;;;;;;;;;;;;;;;18.96;75.30;100071.42;1654946;85;20214;-68
2022/07/15 03:32:32;;;;;;;;;;;;;;;19.07;75.09;100071.84;1654813;85;20130;-68
2022/07/15 03:35:00;;;;;;;;;;;;;;;19.14;74.87;100072.91;1654268;84;20198;-68
2022/07/15 03:37:28;;;;;;;;;;;;;;;19.21;74.78;100075.91;1654808;85;20447;-68
2022/07/15 03:39:56;;;;;;;;;;;;;;;19.29;74.44;100076.99;1654910;85;21238;-68
2022/07/15 03:42:23;;;;;;;;;;;;;;;19.37;74.18;100076.70;1654443;85;20176;-69
2022/07/15 03:44:50;;;;;;;;;;;;;;;19.47;73.84;100073.61;1655189;85;20167;-68
2022/07/15 03:47:17;;;;;;;;;;;;;;;19.57;73.42;100077.86;1654143;85;20142;-68
2022/07/15 03:49:43;;;;;;;;;;;;;;;19.67;73.04;100075.58;1655264;85;20224;-68
2022/07/15 03:52:10;;;;;;;;;;;;;;;19.77;72.66;100073.60;1653483;85;21104;-68
2022/07/15 03:54:37;;;;;;;;;;;;;;;19.86;72.18;100075.13;1654798;85;20159;-68
2022/07/15 03:57:05;;;;;;;;;;;;;;;19.93;71.40;100080.58;1656457;86;20595;-68
2022/07/15 03:59:32;;;;;;;;;;;;;;;19.94;70.77;100090.29;1654803;86;20598;-68
2022/07/15 04:01:58;;;;;;;;;;;;;;;19.93;70.26;100088.14;1655067;86;20139;-68
2022/07/15 04:04:25;;;;;;;;;;;;;;;19.95;70.16;100080.48;1656447;86;21244;-68
2022/07/15 04:06:51;;;;;;;;;;;;;;;20.01;69.95;100082.45;1656368;86;20199;-68
2022/07/15 04:09:19;;;;;;;;;;;;;;;20.06;69.62;100081.66;1656350;86;20241;-68
2022/07/15 04:11:46;;;;;;;;;;;;;;;20.14;69.31;100081.37;1656448;86;20851;-68
2022/07/15 04:14:13;;;;;;;;;;;;;;;20.18;69.05;100080.94;1656409;86;20521;-68
2022/07/15 04:16:43;;;;;;;;;;;;;;;20.20;68.83;100086.80;1656272;86;21260;-68
2022/07/15 04:19:22;;;;;;;;;;;;;;;20.25;68.77;100093.38;1654041;86;20187;-68
2022/07/15 04:21:51;;;;;;;;;;;;;;;20.32;68.93;100093.63;1656566;86;20147;-67
2022/07/15 04:24:18;;;;;;;;;;;;;;;20.36;69.39;100095.11;1656512;86;20135;-67
2022/07/15 04:26:44;;;;;;;;;;;;;;;20.39;69.65;100085.74;1656306;86;20178;-67
2022/07/15 04:29:13;;;;;;;;;;;;;;;20.43;69.66;100062.80;1656048;86;21270;-68
2022/07/15 04:31:40;;;;;;;;;;;;;;;20.41;69.90;100046.09;1656424;86;20179;-67
2022/07/15 04:34:10;;;;;;;;;;;;;;;20.37;70.18;100038.41;1662398;86;20153;-68
2022/07/15 04:36:39;;;;;;;;;;;;;;;20.34;70.50;100033.64;1654635;86;20494;-67
2022/07/15 04:39:06;;;;;;;;;;;;;;;20.30;70.80;100041.66;1655894;86;20184;-67
2022/07/15 04:41:33;;;;;;;;;;;;;;;20.33;71.19;100027.41;1655796;86;21283;-68
2022/07/15 04:44:05;;;;;;;;;;;;;;;20.39;71.35;100040.20;1656484;86;20179;-68
2022/07/15 04:46:36;;;;;;;;;;;;;;;20.42;71.48;100042.24;1650647;85;20144;-67
2022/07/15 04:52:14;;;;;;;;;;;;;;;20.62;71.40;100050.11;1633697;86;20194;-66
2022/07/15 04:54:43;;;;;;;;;;;;;;;20.76;71.23;100057.93;1655415;86;21193;-67
2022/07/15 04:57:13;;;;;;;;;;;;;;;20.89;70.95;100068.23;1627449;85;20178;-66
2022/07/15 04:59:42;;;;;;;;;;;;;;;20.99;70.42;100074.04;1655783;85;20151;-67
2022/07/15 05:02:19;;;;;;;;;;;;;;;21.08;69.80;100057.62;1637234;85;20192;-67
2022/07/15 05:04:47;;;;;;;;;;;;;;;21.19;69.34;100048.44;1655304;85;20181;-67
2022/07/15 05:07:21;;;;;;;;;;;;;;;21.29;68.49;100050.72;1656234;86;21106;-67
2022/07/15 05:09:57;;;;;;;;;;;;;;;21.35;67.94;100057.52;1629557;85;20433;-67
2022/07/15 05:12:30;;;;;;;;;;;;;;;21.41;67.67;100059.44;1629610;88;20181;-68
2022/07/15 05:15:06;;;;;;;;;;;;;;;21.45;67.62;100044.03;1649856;85;20153;-68
2022/07/15 05:17:36;;;;;;;;;;;;;;;21.46;67.44;100038.27;1653817;85;20449;-68
2022/07/15 05:20:04;;;;;;;;;;;;;;;21.49;67.42;100034.08;1615853;86;21834;-68
2022/07/15 05:22:31;;;;;;;;;;;;;;;21.52;67.23;100030.68;1656132;86;20147;-68
2022/07/15 05:24:57;;;;;;;;;;;;;;;21.54;67.19;100021.60;1655571;86;20318;-68
2022/07/15 05:27:23;;;;;;;;;;;;;;;21.59;66.99;100021.38;1655270;85;21149;-68
2022/07/15 05:29:50;;;;;;;;;;;;;;;21.60;66.90;100008.00;1655746;85;20182;-69
2022/07/15 05:32:17;;;;;;;;;;;;;;;21.59;66.87;100007.78;1655628;85;21106;-68
2022/07/15 05:34:44;;;;;;;;;;;;;;;21.63;66.87;100001.09;1655128;85;20441;-68
2022/07/15 05:37:12;;;;;;;;;;;;;;;21.67;66.46;99982.38;1655128;85;20159;-68
2022/07/15 05:39:53;;;;;;;;;;;;;;;21.69;66.53;99987.48;1654666;85;20179;-69
2022/07/15 05:42:09;;;;;;;;;;;;;;;21.66;66.71;99982.73;1648959;85;20199;-68
2022/07/15 05:44:37;;;;;;;;;;;;;;;21.71;66.93;99982.47;1654442;85;22165;-69
2022/07/15 05:47:04;;;;;;;;;;;;;;;21.78;66.95;99978.59;1654271;85;20150;-67
2022/07/15 05:49:32;;;;;;;;;;;;;;;21.85;67.00;99979.36;1654579;85;20169;-67
2022/07/15 05:51:58;;;;;;;;;;;;;;;21.93;67.03;99981.94;1654160;85;20225;-68
2022/07/15 05:54:26;;;;;;;;;;;;;;;21.95;66.73;99970.15;1654303;85;20189;-67
2022/07/15 05:56:53;;;;;;;;;;;;;;;22.00;66.83;99973.96;1656478;86;21189;-68
2022/07/15 05:59:28;;;;;;;;;;;;;;;22.11;66.82;99975.63;1655293;85;20237;-67
2022/07/15 06:01:54;;;;;;;;;;;;;;;22.26;66.49;99972.72;1654219;85;20620;-68
2022/07/15 06:04:22;;;;;;;;;;;;;;;22.39;66.10;99963.34;1655022;85;20414;-68
2022/07/15 06:06:48;;;;;;;;;;;;;;;22.53;65.95;99963.47;1654927;85;20182;-68
2022/07/15 06:09:14;;;;;;;;;;;;;;;22.67;65.77;99962.44;1655771;85;21271;-68
2022/07/15 06:11:41;;;;;;;;;;;;;;;22.89;65.56;99952.27;1656564;86;20139;-68
2022/07/15 06:14:08;;;;;;;;;;;;;;;23.21;65.39;99955.53;1655619;86;20180;-69
2022/07/15 06:16:35;;;;;;;;;;;;;;;23.51;64.56;99951.09;1654872;85;20260;-68
2022/07/15 06:19:01;;;;;;;;;;;;;;;23.73;63.70;99950.19;1633256;85;20483;-68
2022/07/15 06:21:29;;;;;;;;;;;;;;;23.88;62.89;99950.66;1644362;85;21165;-68
2022/07/15 06:23:56;;;;;;;;;;;;;;;23.96;62.03;99951.02;1654599;85;20179;-69
2022/07/15 06:26:23;;;;;;;;;;;;;;;23.96;61.62;99948.28;1654663;85;20205;-67
2022/07/15 06:28:49;;;;;;;;;;;;;;;24.02;61.29;99948.20;1654303;85;20427;-67
2022/07/15 06:31:18;;;;;;;;;;;;;;;24.13;61.13;99936.69;1631254;86;20445;-68
2022/07/15 06:33:44;;;;;;;;;;;;;;;24.30;60.60;99940.30;1634551;86;21136;-67
2022/07/15 06:36:10;;;;;;;;;;;;;;;24.42;60.03;99931.17;1654864;85;20500;-68
2022/07/15 06:38:37;;;;;;;;;;;;;;;24.55;59.57;99931.97;1652969;85;20190;-67
2022/07/15 06:41:03;;;;;;;;;;;;;;;24.71;59.19;99933.73;1656352;86;20406;-68
2022/07/15 06:43:30;;;;;;;;;;;;;;;24.88;58.94;99929.72;1656041;86;20189;-68
2022/07/15 06:45:58;;;;;;;;;;;;;;;25.06;58.79;99929.95;1653696;86;21174;-68
2022/07/15 06:48:25;;;;;;;;;;;;;;;25.22;58.49;99923.75;1656429;86;20151;-68
2022/07/15 06:50:53;;;;;;;;;;;;;;;25.29;57.95;99927.16;1652499;85;20179;-67
2022/07/15 06:53:20;;;;;;;;;;;;;;;25.32;57.72;99928.56;1654447;85;20171;-70
2022/07/15 06:55:46;;;;;;;;;;;;;;;25.34;57.22;99926.25;1655554;85;20147;-68
2022/07/15 06:58:13;;;;;;;;;;;;;;;25.41;56.95;99930.44;1655890;85;21176;-68
2022/07/15 07:00:39;;;;;;;;;;;;;;;25.53;57.06;99922.55;1654446;85;20217;-68
2022/07/15 07:03:06;;;;;;;;;;;;;;;25.69;57.08;99914.13;1654467;85;20457;-68
2022/07/15 07:05:33;;;;;;;;;;;;;;;25.84;56.63;99909.64;1654832;85;20219;-67
2022/07/15 07:08:00;;;;;;;;;;;;;;;26.00;56.91;99901.98;1655677;85;20159;-68
2022/07/15 07:10:26;;;;;;;;;;;;;;;26.15;56.60;99896.03;1655376;85;21588;-68
2022/07/15 07:12:53;;;;;;;;;;;;;;;26.29;56.22;99897.53;1654692;85;20142;-68
2022/07/15 07:15:21;;;;;;;;;;;;;;;26.40;55.68;99901.71;1656089;86;20143;-68
2022/07/15 07:17:47;;;;;;;;;;;;;;;26.47;55.66;99903.13;1656526;86;20458;-67
2022/07/15 07:20:14;;;;;;;;;;;;;;;26.54;54.86;99901.83;1629963;86;20185;-66
2022/07/15 07:22:40;;;;;;;;;;;;;;;26.57;54.37;99894.81;1628010;88;20803;-67
2022/07/15 07:25:08;;;;;;;;;;;;;;;26.58;53.91;99892.27;1639155;85;20155;-67
2022/07/15 07:27:34;;;;;;;;;;;;;;;26.60;53.24;99889.36;1654982;85;20175;-67
2022/07/15 07:30:04;;;;;;;;;;;;;;;26.67;53.23;99887.25;1655053;85;20143;-67
2022/07/15 07:32:32;;;;;;;;;;;;;;;26.78;53.07;99877.71;1654798;85;20160;-68
2022/07/15 07:34:58;;;;;;;;;;;;;;;26.88;52.80;99877.79;1654850;85;21150;-68
2022/07/15 07:37:26;;;;;;;;;;;;;;;26.99;52.81;99872.94;1651973;85;20451;-68
2022/07/15 07:39:53;;;;;;;;;;;;;;;27.05;52.64;99875.52;1654850;85;20481;-68
2022/07/15 07:42:19;;;;;;;;;;;;;;;27.11;52.34;99882.17;1655011;85;20663;-68
2022/07/15 07:44:46;;;;;;;;;;;;;;;27.15;52.46;99878.91;1655058;85;20258;-68
2022/07/15 07:47:12;;;;;;;;;;;;;;;27.19;52.58;99882.45;1654387;85;21110;-69
2022/07/15 07:49:39;;;;;;;;;;;;;;;27.26;52.49;99885.21;1655452;85;20210;-68
2022/07/15 07:52:06;;;;;;;;;;;;;;;27.34;52.05;99895.05;1654914;85;20180;-69
2022/07/15 07:54:32;;;;;;;;;;;;;;;27.44;51.93;99895.45;1654311;85;20611;-68
2022/07/15 07:56:58;;;;;;;;;;;;;;;27.55;51.96;99882.56;1654588;85;20462;-69
2022/07/15 07:59:25;;;;;;;;;;;;;;;27.71;51.30;99892.59;1654095;85;21151;-68
2022/07/15 08:01:51;;;;;;;;;;;;;;;27.94;51.08;99883.25;1654280;85;20144;-68
2022/07/15 08:04:18;;;;;;;;;;;;;;;28.18;50.71;99881.08;1654824;85;20174;-68
2022/07/15 08:06:44;;;;;;;;;;;;;;;28.42;49.33;99878.73;1654562;85;20524;-68
2022/07/15 08:09:10;;;;;;;;;;;;;;;28.61;49.04;99881.05;1654477;85;20155;-68
2022/07/15 08:11:37;;;;;;;;;;;;;;;28.82;48.80;99883.55;1654601;85;21816;-68
2022/07/15 08:14:05;;;;;;;;;;;;;;;29.01;47.23;99890.00;1651796;85;20182;-69
2022/07/15 08:16:33;;;;;;;;;;;;;;;29.10;45.65;99889.58;1654635;85;20341;-68
2022/07/15 08:19:00;;;;;;;;;;;;;;;29.17;45.30;99899.17;1652380;85;20144;-67
2022/07/15 08:21:27;;;;;;;;;;;;;;;29.11;44.14;99901.55;1651734;85;20382;-69
2022/07/15 08:23:54;;;;;;;;;;;;;;;29.07;43.46;99898.03;1644895;85;20758;-69
2022/07/15 08:26:23;;;;;;;;;;;;;;;29.07;42.88;99910.41;1655185;86;20238;-69
2022/07/15 08:28:50;;;;;;;;;;;;;;;29.05;42.39;99921.01;1654951;86;20198;-68
2022/07/15 08:31:17;;;;;;;;;;;;;;;29.03;42.80;99903.36;1669169;85;20187;-67
2022/07/15 08:33:43;;;;;;;;;;;;;;;29.04;42.38;99908.45;1664953;85;20168;-67
2022/07/15 08:36:09;;;;;;;;;;;;;;;29.06;41.58;99908.06;1656049;86;21530;-70
2022/07/15 08:38:36;;;;;;;;;;;;;;;29.09;41.32;99908.05;1656118;86;20131;-68
2022/07/15 08:41:02;;;;;;;;;;;;;;;29.13;41.17;99919.04;1656375;86;20555;-70
2022/07/15 08:43:29;;;;;;;;;;;;;;;28.96;40.06;99913.77;1656464;86;20543;-68
2022/07/15 08:45:56;;;;;;;;;;;;;;;28.79;41.17;99905.73;1656574;86;20179;-68
2022/07/15 08:48:26;;;;;;;;;;;;;;;28.76;41.89;99905.18;1656292;86;21565;-69
2022/07/15 08:50:53;;;;;;;;;;;;;;;28.84;40.58;99907.31;1656080;86;20206;-67
2022/07/15 08:53:20;;;;;;;;;;;;;;;28.89;40.68;99908.27;1655292;85;20180;-68
2022/07/15 08:55:47;;;;;;;;;;;;;;;28.97;40.85;99905.70;1656388;86;20455;-67
2022/07/15 08:58:16;;;;;;;;;;;;;;;28.96;40.36;99903.55;1650899;86;20275;-68
2022/07/15 09:00:42;;;;;;;;;;;;;;;28.92;40.73;99906.91;1629693;88;21092;-67
2022/07/15 09:03:13;;;;;;;;;;;;;;;29.00;41.18;99914.56;1637697;85;20474;-69
2022/07/15 09:05:43;;;;;;;;;;;;;;;29.04;40.38;99918.67;1655029;85;20179;-69
2022/07/15 09:08:19;;;;;;;;;;;;;;;28.91;40.86;99912.78;1654795;85;20186;-69
2022/07/15 09:10:56;;;;;;;;;;;;;;;28.84;41.47;99916.94;1655710;85;20524;-68
2022/07/15 09:13:44;;;;;;;;;;;;;;;28.74;41.69;99922.64;1654949;86;22036;-68
2022/07/15 09:16:23;;;;;;;;;;;;;;;28.71;42.93;99946.20;1654809;86;20211;-67
2022/07/15 09:18:57;;;;;;;;;;;;;;;28.72;44.84;99938.73;1655385;86;20225;-69
2022/07/15 09:21:32;;;;;;;;;;;;;;;28.75;45.74;99961.30;1655953;86;20456;-66
2022/07/15 09:24:18;;;;;;;;;;;;;;;28.66;46.47;99962.30;1656103;86;20139;-66
2022/07/15 09:26:49;;;;;;;;;;;;;;;28.59;47.32;99957.59;1656140;86;21235;-67
2022/07/15 09:36:01;;;;;;;;;;;;;;;28.38;47.96;99961.11;1641640;85;20861;-68
2022/07/15 09:37:34;;;;;;;;;;;;;;;28.34;48.20;99967.79;1656500;85;20446;-69
2022/07/15 09:40:00;;;;;;;;;;;;;;;28.29;48.12;99980.71;1655948;86;21058;-67
2022/07/15 09:42:27;;;;;;;;;;;;;;;28.18;48.34;99967.58;1655742;86;20484;-67
2022/07/15 09:44:53;;;;;;;;;;;;;;;28.09;48.81;99974.62;1655907;86;20291;-67
2022/07/15 09:47:22;;;;;;;;;;;;;;;28.10;49.36;99973.44;1655930;86;20207;-68
2022/07/15 09:49:49;;;;;;;;;;;;;;;28.02;48.13;99978.14;1655779;86;20180;-67
2022/07/15 09:52:16;;;;;;;;;;;;;;;27.91;48.32;99982.23;1655945;86;20695;-67
2022/07/15 09:54:47;;;;;;;;;;;;;;;27.79;47.97;99982.59;1655986;86;20182;-67
2022/07/15 09:57:16;;;;;;;;;;;;;;;27.66;48.46;99986.23;1656125;86;20505;-67
2022/07/15 09:59:43;;;;;;;;;;;;;;;27.55;48.91;99983.47;1655605;86;20185;-67
2022/07/15 10:02:09;;;;;;;;;;;;;;;27.52;48.99;99984.83;1656481;86;20184;-68
2022/07/15 10:04:36;;;;;;;;;;;;;;;27.42;48.51;99995.17;1649976;86;22262;-67
2022/07/15 10:07:03;;;;;;;;;;;;;;;27.28;49.01;99998.63;1629637;88;20174;-68
2022/07/15 10:09:33;;;;;;;;;;;;;;;27.16;49.24;100001.10;1629500;88;20151;-67
2022/07/15 10:12:03;;;;;;;;;;;;;;;27.01;49.79;99996.66;1630914;85;20151;-67
2022/07/15 10:14:55;;;;;;;;;;;;;;;26.92;50.09;99995.64;1629939;85;20198;-67
2022/07/15 10:17:32;;;;;;;;;;;;;;;26.84;50.15;100000.27;1654940;85;21192;-67
2022/07/15 10:20:12;;;;;;;;;;;;;;;26.76;50.56;99998.66;1654061;85;20304;-68
2022/07/15 10:23:17;;;;;;;;;;;;;;;26.71;51.24;99993.52;1654095;85;20203;-68
2022/07/15 10:26:10;;;;;;;;;;;;;;;26.68;51.75;99989.38;1652596;85;20324;-67
2022/07/15 10:28:57;;;;;;;;;;;;;;;26.64;51.57;99998.95;1652849;85;20204;-67
2022/07/15 10:31:26;;;;;;;;;;;;;;;26.57;50.59;100000.27;1653682;85;21265;-67
2022/07/15 10:34:14;;;;;;;;;;;;;;;26.50;51.11;100003.73;1655909;85;20154;-67
2022/07/15 10:36:51;;;;;;;;;;;;;;;26.46;49.90;100005.63;1656295;86;20194;-67
2022/07/15 10:39:20;;;;;;;;;;;;;;;26.37;49.16;100004.56;1655125;85;20326;-67
2022/07/15 10:41:59;;;;;;;;;;;;;;;26.28;49.46;100021.88;1655375;85;20147;-69
2022/07/15 10:44:27;;;;;;;;;;;;;;;26.20;49.72;100013.40;1655830;86;21169;-67
2022/07/15 10:47:15;;;;;;;;;;;;;;;26.15;49.70;100028.78;1652524;85;20174;-68
2022/07/15 10:49:43;;;;;;;;;;;;;;;26.12;49.88;100032.27;1653310;85;20213;-69
2022/07/15 10:52:17;;;;;;;;;;;;;;;26.10;50.62;100044.19;1654847;85;20154;-68
2022/07/15 10:54:46;;;;;;;;;;;;;;;26.08;50.94;100045.91;1654485;85;20194;-68
2022/07/15 10:57:13;;;;;;;;;;;;;;;26.06;51.01;100058.39;1655087;85;21137;-68
2022/07/15 10:59:48;;;;;;;;;;;;;;;26.01;51.23;100064.21;1654381;85;20171;-68
2022/07/15 11:02:16;;;;;;;;;;;;;;;25.94;51.54;100069.80;1653373;85;20173;-67
2022/07/15 11:04:42;;;;;;;;;;;;;;;25.89;51.67;100083.80;1651089;85;20139;-68
2022/07/15 11:07:15;;;;;;;;;;;;;;;25.79;52.00;100083.64;1654182;85;20154;-67
2022/07/15 11:09:52;;;;;;;;;;;;;;;25.69;52.55;100080.98;1652724;85;21252;-67
2022/07/15 11:12:24;;;;;;;;;;;;;;;25.60;52.82;100084.56;1654621;85;20243;-68
2022/07/15 11:15:04;;;;;;;;;;;;;;;25.54;53.41;100087.43;1652664;85;20182;-66
2022/07/15 11:17:37;;;;;;;;;;;;;;;25.52;53.43;100102.83;1648632;85;20162;-66
2022/07/15 11:20:11;;;;;;;;;;;;;;;25.53;53.46;100096.77;1654899;85;20481;-67
2022/07/15 11:22:40;;;;;;;;;;;;;;;25.51;53.59;100093.05;1655950;85;21122;-68
2022/07/15 11:25:09;;;;;;;;;;;;;;;25.46;53.75;100090.04;1655435;86;20167;-68
2022/07/15 11:27:36;;;;;;;;;;;;;;;25.44;53.80;100101.16;1654024;85;20200;-68
2022/07/15 11:30:04;;;;;;;;;;;;;;;25.40;54.20;100108.50;1652318;85;20155;-67
2022/07/15 11:32:31;;;;;;;;;;;;;;;25.35;54.22;100110.20;1654820;85;20150;-66
2022/07/15 11:34:59;;;;;;;;;;;;;;;25.26;54.22;100118.06;1652646;86;21123;-67
2022/07/15 11:37:27;;;;;;;;;;;;;;;25.18;54.87;100109.55;1655809;86;20136;-67
2022/07/15 11:40:10;;;;;;;;;;;;;;;25.12;55.27;100100.66;1656035;86;20210;-67
2022/07/15 11:45:33;;;;;;;;;;;;;;;24.99;55.35;100073.50;1654305;85;20532;-68
2022/07/15 11:48:00;;;;;;;;;;;;;;;24.98;55.60;100082.86;1655209;85;21133;-68
2022/07/15 11:50:26;;;;;;;;;;;;;;;24.95;55.77;100089.05;1654798;85;20205;-68
2022/07/15 11:52:58;;;;;;;;;;;;;;;24.89;56.05;100113.73;1656005;85;20194;-67
2022/07/15 11:55:24;;;;;;;;;;;;;;;24.78;56.55;100131.30;1656391;86;20175;-68
2022/07/15 11:57:51;;;;;;;;;;;;;;;24.67;57.61;100128.94;1656131;85;20441;-68
2022/07/15 12:00:29;;;;;;;;;;;;;;;24.61;58.41;100135.06;1656010;86;20155;-67
2022/07/15 12:03:08;;;;;;;;;;;;;;;24.46;58.90;100139.48;1655919;86;20140;-68
2022/07/15 12:05:35;;;;;;;;;;;;;;;24.33;59.45;100131.98;1656712;86;20164;-68
2022/07/15 12:08:01;;;;;;;;;;;;;;;24.21;59.99;100128.03;1656586;86;20476;-67
2022/07/15 12:10:35;;;;;;;;;;;;;;;24.02;60.37;100133.72;1656316;86;20180;-67
2022/07/15 12:13:04;;;;;;;;;;;;;;;23.86;60.82;100159.67;1656433;86;20150;-67
2022/07/15 12:15:33;;;;;;;;;;;;;;;23.67;61.11;100147.91;1656027;86;20151;-67
2022/07/15 12:18:01;;;;;;;;;;;;;;;23.47;61.73;100136.95;1629667;88;20141;-67
2022/07/15 12:20:27;;;;;;;;;;;;;;;23.30;62.34;100135.97;1629652;88;20174;-67
2022/07/15 12:23:08;;;;;;;;;;;;;;;23.15;62.79;100132.88;1629824;87;20146;-67
2022/07/15 12:25:35;;;;;;;;;;;;;;;23.04;63.17;100141.94;1643355;86;22096;-68
2022/07/15 12:28:02;;;;;;;;;;;;;;;22.90;63.70;100149.13;1656524;86;20163;-67
2022/07/15 12:30:35;;;;;;;;;;;;;;;22.78;63.95;100144.56;1656224;86;20227;-68
2022/07/15 12:33:16;;;;;;;;;;;;;;;22.68;64.26;100147.80;1656187;86;20200;-68
2022/07/15 12:35:42;;;;;;;;;;;;;;;22.55;64.83;100145.70;1656444;86;20143;-67
2022/07/15 12:38:09;;;;;;;;;;;;;;;22.39;65.46;100162.55;1660727;85;21566;-66
2022/07/15 12:40:35;;;;;;;;;;;;;;;22.27;65.90;100174.25;1672796;85;20157;-68
2022/07/15 12:43:02;;;;;;;;;;;;;;;22.17;66.20;100172.02;1672812;86;20432;-68
2022/07/15 12:45:31;;;;;;;;;;;;;;;22.09;66.54;100173.72;1672943;85;20145;-67
2022/07/15 12:48:03;;;;;;;;;;;;;;;22.04;66.79;100173.16;1658095;86;20494;-68
2022/07/15 12:50:38;;;;;;;;;;;;;;;22.04;66.92;100175.87;1639686;86;22054;-68
2022/07/15 12:53:05;;;;;;;;;;;;;;;22.03;66.95;100174.30;1628217;88;20174;-68
2022/07/15 12:55:33;;;;;;;;;;;;;;;22.06;66.99;100184.49;1647978;85;20171;-67
2022/07/15 12:58:07;;;;;;;;;;;;;;;22.11;67.04;100170.09;1655129;85;20172;-67
2022/07/15 13:00:34;;;;;;;;;;;;;;;22.17;66.91;100170.08;1656370;86;20286;-67
2022/07/15 13:03:21;;;;;;;;;;;;;;;22.20;66.76;100171.33;1656181;85;39399;-67
2022/07/15 13:05:51;;;;;;;;;;;;;;;22.22;66.71;100163.05;1651386;85;20177;-67
2022/07/15 13:08:22;;;;;;;;;;;;;;;22.29;66.72;100167.12;1653028;85;20186;-67